KCVN

Clovis Municipal Airport

Clovis, New Mexico, USA
METAR KCVN 241256Z AUTO 10003KT 10SM 14/13 A3018 RMK AO2 SLP190 T01440128
Observed Flight Rules
May-24 @ 12:56 UTC (an hour ago)
Wind Visibility
100° at 3 knots 10 miles
Temperatures Readings
Current 14°C / 57°F
Dewpoint 13°C / 55°F
Humidity 94%
Altimeter 30.18" Hg
Pressure 1019 hPa
Elevation 1284
METAR KCVN 241256Z AUTO 10003KT 10SM 14/13 A3018 RMK AO2 SLP190 T01440128
Observed Flight Rules
May-24 @ 12:56 UTC
(an hour ago)
Wind Visibility
100° at 3 knots 10 miles
Temperature Dewpoint
14°C / 57°F 13°C / 55°F
Humidity Altimeter Pressure
94% 30.18" Hg 1019 hPa